Time;durP1;ratioP1;P1;durP2;ratioP2;P2;SDS_P1;SDS_P2;PMS_P1;PMS_P2;Temp;Humidity;BMP_temperature;BMP_pressure;BME280_temperature;BME280_humidity;BME280_pressure;Samples;Min_cycle;Max_cycle;Signal;HPM_P1;HPM_P2
2022/08/11 00:01:05;;;;;;;0.65;0.20;;;19.30;99.90;;;;;;5040115;28;20017;-83
2022/08/11 00:03:33;;;;;;;0.50;0.20;;;19.30;99.90;;;;;;5040152;28;20033;-84
2022/08/11 00:05:59;;;;;;;0.52;0.28;;;19.20;99.90;;;;;;5039507;28;20049;-81
2022/08/11 00:08:27;;;;;;;0.65;0.20;;;19.20;99.90;;;;;;5035260;28;20032;-83
2022/08/11 00:11:03;;;;;;;0.70;0.20;;;19.10;99.90;;;;;;5053312;28;20063;-83
2022/08/11 00:13:40;;;;;;;2.00;0.30;;;19.20;99.90;;;;;;5040204;28;20060;-85
2022/08/11 00:16:22;;;;;;;0.70;0.30;;;19.10;99.90;;;;;;5040961;28;20029;-81
2022/08/11 00:18:54;;;;;;;0.60;0.20;;;19.20;99.90;;;;;;5028011;28;20120;-80
2022/08/11 00:21:22;;;;;;;1.33;0.30;;;19.10;99.90;;;;;;5035827;28;20032;-81
2022/08/11 00:24:00;;;;;;;1.15;0.30;;;19.00;99.90;;;;;;5042557;28;20021;-82
2022/08/11 00:26:28;;;;;;;0.80;0.30;;;19.00;99.90;;;;;;5041271;28;20057;-80
2022/08/11 00:28:55;;;;;;;0.60;0.30;;;18.90;99.90;;;;;;5040172;28;20056;-81
2022/08/11 00:31:25;;;;;;;0.90;0.30;;;18.90;99.90;;;;;;5043709;28;20068;-84
2022/08/11 00:33:52;;;;;;;1.45;0.30;;;18.80;99.90;;;;;;5043276;28;20113;-86
2022/08/11 00:36:22;;;;;;;0.90;0.40;;;18.70;99.90;;;;;;5042296;28;20567;-81
2022/08/11 00:38:50;;;;;;;1.75;0.30;;;18.70;99.90;;;;;;5036112;28;20432;-81
2022/08/11 00:41:19;;;;;;;0.73;0.30;;;18.80;99.90;;;;;;5035796;28;20105;-83
2022/08/11 00:44:22;;;;;;;2.00;0.30;;;18.70;99.90;;;;;;5037086;28;20033;-84
2022/08/11 00:47:05;;;;;;;0.80;0.30;;;18.70;99.90;;;;;;5041620;28;20541;-81
2022/08/11 00:49:53;;;;;;;0.80;0.30;;;18.70;99.90;;;;;;5015992;28;20044;-81
2022/08/11 00:52:43;;;;;;;0.93;0.30;;;18.70;99.90;;;;;;5040987;28;20072;-86
2022/08/11 00:55:38;;;;;;;0.60;0.30;;;18.60;99.90;;;;;;5045371;28;20025;-86
2022/08/11 00:58:41;;;;;;;0.85;0.30;;;18.60;99.90;;;;;;5043686;28;20086;-83
2022/08/11 01:01:09;;;;;;;0.55;0.20;;;18.50;99.90;;;;;;5042913;28;20076;-82
2022/08/11 01:03:40;;;;;;;1.05;0.30;;;18.40;99.90;;;;;;5042924;28;20116;-82
2022/08/11 01:06:31;;;;;;;1.90;0.30;;;18.30;99.90;;;;;;5033486;28;20033;-84
2022/08/11 01:09:18;;;;;;;0.85;0.20;;;18.30;99.90;;;;;;5042964;28;20076;-82
2022/08/11 01:12:14;;;;;;;0.93;0.30;;;18.20;99.90;;;;;;5049179;28;20075;-84
2022/08/11 01:14:55;;;;;;;1.20;0.30;;;18.20;99.90;;;;;;5039348;28;20057;-82
2022/08/11 01:17:48;;;;;;;0.80;0.20;;;18.10;99.90;;;;;;5041375;28;20026;-82
2022/08/11 01:20:29;;;;;;;2.58;0.60;;;18.00;99.90;;;;;;5041129;28;20493;-82
2022/08/11 01:23:25;;;;;;;0.70;0.30;;;18.00;99.90;;;;;;5040788;28;20155;-85
2022/08/11 01:26:28;;;;;;;1.33;0.40;;;17.90;99.90;;;;;;5038454;28;20029;-82
2022/08/11 01:29:18;;;;;;;0.82;0.30;;;17.80;99.90;;;;;;5038756;28;20047;-84
2022/08/11 01:31:59;;;;;;;0.90;0.30;;;17.80;99.90;;;;;;5037029;28;20112;-82
2022/08/11 01:34:55;;;;;;;1.10;0.40;;;17.70;99.90;;;;;;5040294;28;20060;-82
2022/08/11 01:37:59;;;;;;;0.73;0.30;;;17.70;99.90;;;;;;5043606;28;20052;-82
2022/08/11 01:40:50;;;;;;;0.90;0.40;;;17.70;99.90;;;;;;5046236;28;20572;-86
2022/08/11 01:46:58;;;;;;;1.00;0.30;;;17.50;99.90;;;;;;5042721;28;20116;-81
2022/08/11 01:49:30;;;;;;;1.80;0.30;;;17.50;99.90;;;;;;5013783;28;20753;-82
2022/08/11 01:52:18;;;;;;;1.30;0.30;;;17.50;99.90;;;;;;5043128;28;20029;-82
2022/08/11 01:54:55;;;;;;;1.50;0.30;;;17.50;99.90;;;;;;5037792;28;20039;-82
2022/08/11 01:57:55;;;;;;;0.82;0.30;;;17.40;99.90;;;;;;5041582;28;20488;-83
2022/08/11 02:00:27;;;;;;;0.90;0.40;;;17.30;99.90;;;;;;5041175;28;20025;-87
2022/08/11 02:03:16;;;;;;;1.10;0.40;;;17.30;99.90;;;;;;5043521;28;20041;-81
2022/08/11 02:09:25;;;;;;;1.15;0.40;;;17.20;99.90;;;;;;5031623;28;20402;-86
2022/08/11 02:11:57;;;;;;;0.80;0.38;;;17.30;99.90;;;;;;5039368;28;20029;-83
2022/08/11 02:14:38;;;;;;;0.98;0.40;;;17.40;99.90;;;;;;5037742;28;20072;-84
2022/08/11 02:17:16;;;;;;;1.02;0.50;;;17.40;99.90;;;;;;5039361;28;20053;-81
2022/08/11 02:26:02;;;;;;;;;;;17.40;99.90;;;;;;5045190;28;20508;-81
2022/08/11 02:28:31;;;;;;;1.42;0.30;;;17.30;99.90;;;;;;5033897;28;19917;-83
2022/08/11 02:34:07;;;;;;;2.45;0.50;;;17.30;99.90;;;;;;5038297;28;20025;-82
2022/08/11 02:36:44;;;;;;;0.90;0.40;;;17.30;99.90;;;;;;5038834;28;20621;-85
2022/08/11 02:39:13;;;;;;;0.90;0.40;;;17.20;99.90;;;;;;5034886;28;20459;-82
2022/08/11 02:45:00;;;;;;;1.10;0.40;;;17.10;99.90;;;;;;5041637;28;20035;-81
2022/08/11 02:49:52;;;;;;;1.33;0.47;;;17.10;99.90;;;;;;5050752;28;20025;-85
2022/08/11 02:50:36;;;;;;;1.08;0.40;;;17.00;99.90;;;;;;5040076;28;20029;-81
2022/08/11 02:53:13;;;;;;;0.98;0.38;;;17.00;99.90;;;;;;5042085;28;20033;-82
2022/08/11 02:55:52;;;;;;;1.30;0.40;;;17.00;99.90;;;;;;5048052;28;20056;-83
2022/08/11 02:58:34;;;;;;;1.27;0.40;;;16.90;99.90;;;;;;5038900;28;20211;-80
2022/08/11 03:01:22;;;;;;;1.05;0.40;;;16.90;99.90;;;;;;5042004;28;20033;-85
2022/08/11 03:04:09;;;;;;;1.00;0.40;;;16.80;99.90;;;;;;5040541;28;20112;-81
2022/08/11 03:06:50;;;;;;;1.27;0.40;;;16.80;99.90;;;;;;5052888;28;20473;-84
2022/08/11 03:09:34;;;;;;;0.98;0.40;;;16.80;99.90;;;;;;5025750;28;20084;-84
2022/08/11 03:18:17;;;;;;;1.38;0.50;;;16.80;99.90;;;;;;5036179;28;20060;-85
2022/08/11 03:20:58;;;;;;;0.98;0.38;;;16.60;99.90;;;;;;5040258;28;20032;-80
2022/08/11 03:23:38;;;;;;;2.05;0.40;;;16.70;99.90;;;;;;5023193;28;20096;-82
2022/08/11 03:27:00;;;;;;;1.60;0.50;;;16.70;99.90;;;;;;5034487;28;20059;-85
2022/08/11 03:29:46;;;;;;;1.95;0.40;;;16.80;99.90;;;;;;4970175;28;20038;-82
2022/08/11 03:34:00;;;;;;;2.00;0.50;;;16.70;99.90;;;;;;4986840;28;20355;-82
2022/08/11 03:35:42;;;;;;;2.15;0.50;;;16.60;99.90;;;;;;4985567;28;20035;-81
2022/08/11 03:38:13;;;;;;;1.10;0.50;;;16.50;99.90;;;;;;4952572;28;20690;-80
2022/08/11 03:44:23;;;;;;;0.80;0.32;;;16.40;99.90;;;;;;4985953;28;20050;-81
2022/08/11 03:47:13;;;;;;;1.05;0.60;;;16.40;99.90;;;;;;4969023;28;20069;-80
2022/08/11 03:49:57;;;;;;;2.58;0.57;;;16.40;99.90;;;;;;4986801;28;20035;-81
2022/08/11 03:52:42;;;;;;;1.50;0.52;;;16.30;99.90;;;;;;4986716;28;20069;-82
2022/08/11 03:55:32;;;;;;;2.38;0.47;;;16.30;99.90;;;;;;4988560;28;20049;-82
2022/08/11 03:58:16;;;;;;;0.90;0.40;;;16.20;99.90;;;;;;4989778;28;20181;-81
2022/08/11 04:01:09;;;;;;;2.58;0.40;;;16.20;99.90;;;;;;5025530;28;20112;-81
2022/08/11 04:03:56;;;;;;;1.58;0.50;;;16.20;99.90;;;;;;5045323;28;20036;-84
2022/08/11 04:06:49;;;;;;;1.38;0.60;;;16.20;99.90;;;;;;5043917;28;20112;-80
2022/08/11 04:09:53;;;;;;;2.58;0.52;;;16.20;99.90;;;;;;5047993;28;20047;-80
2022/08/11 04:12:24;;;;;;;2.45;0.57;;;16.10;99.90;;;;;;5041554;28;20122;-80
2022/08/11 04:18:34;;;;;;;1.73;0.60;;;16.00;99.90;;;;;;5040893;28;20030;-80
2022/08/11 04:21:06;;;;;;;1.35;0.50;;;16.10;99.90;;;;;;5044193;28;20044;-81
2022/08/11 04:24:06;;;;;;;2.95;0.60;;;16.00;99.90;;;;;;5041279;28;20112;-81
2022/08/11 04:27:08;;;;;;;2.35;0.40;;;16.00;99.90;;;;;;5048206;28;20044;-85
2022/08/11 04:30:02;;;;;;;1.00;0.40;;;16.00;99.90;;;;;;5040260;28;20091;-81
2022/08/11 04:32:31;;;;;;;1.15;0.47;;;16.00;99.90;;;;;;5046930;28;20036;-87
2022/08/11 04:35:15;;;;;;;1.42;0.50;;;16.00;99.90;;;;;;5043605;28;20040;-81
2022/08/11 04:40:43;;;;;;;2.05;0.50;;;16.00;99.90;;;;;;5068642;28;20043;-80
2022/08/11 04:43:55;;;;;;;2.53;0.60;;;16.00;99.90;;;;;;5068911;28;20392;-82
2022/08/11 04:46:42;;;;;;;1.10;0.50;;;16.10;99.90;;;;;;5063951;28;20081;-80
2022/08/11 05:01:41;;;;;;;;;;;16.20;99.90;;;;;;5066692;28;20075;-86
2022/08/11 05:07:51;;;;;;;1.75;0.65;;;16.20;99.90;;;;;;5060534;28;20559;-86
2022/08/11 05:10:42;;;;;;;1.40;0.55;;;16.30;99.90;;;;;;5057640;28;20430;-87
2022/08/11 05:36:28;;;;;;;1.77;0.90;;;16.80;99.90;;;;;;5074665;28;20102;-81
2022/08/11 05:58:43;;;;;;;2.03;0.85;;;17.40;99.90;;;;;;5058351;28;20037;-86
2022/08/11 06:01:21;;;;;;;1.73;0.70;;;17.50;99.90;;;;;;5061510;28;20048;-88
2022/08/11 06:06:36;;;;;;;1.85;0.80;;;17.60;99.90;;;;;;5072221;28;20456;-82
2022/08/11 06:09:02;;;;;;;1.35;0.75;;;17.80;99.90;;;;;;5058495;28;20039;-85
2022/08/11 06:11:30;;;;;;;1.75;0.80;;;17.90;99.90;;;;;;5044490;28;20122;-84
2022/08/11 06:14:01;;;;;;;1.50;0.65;;;18.10;99.90;;;;;;5060922;28;20046;-87
2022/08/11 06:16:28;;;;;;;3.33;1.00;;;18.30;99.90;;;;;;5056224;28;20021;-86
2022/08/11 06:18:55;;;;;;;2.03;0.70;;;18.40;99.90;;;;;;5053335;28;20033;-83
2022/08/11 06:21:22;;;;;;;1.85;0.80;;;18.60;99.90;;;;;;5028959;28;20396;-85
2022/08/11 06:23:50;;;;;;;2.25;0.60;;;18.70;99.90;;;;;;5058969;28;20052;-86
2022/08/11 06:26:19;;;;;;;1.50;0.65;;;18.90;99.90;;;;;;5058265;28;20031;-82
2022/08/11 06:28:47;;;;;;;3.85;0.95;;;19.00;99.90;;;;;;5057157;28;20046;-87
2022/08/11 06:31:19;;;;;;;2.78;0.60;;;19.20;99.90;;;;;;5045399;28;20024;-87
2022/08/11 06:33:56;;;;;;;2.15;0.77;;;19.50;99.90;;;;;;5061274;28;20514;-84
2022/08/11 06:37:05;;;;;;;1.63;0.47;;;19.70;99.90;;;;;;5038648;28;20116;-86
2022/08/11 06:39:57;;;;;;;1.95;0.70;;;19.90;99.90;;;;;;4962777;28;20046;-83
2022/08/11 06:42:45;;;;;;;2.00;0.68;;;20.20;99.90;;;;;;4966753;28;20089;-85
2022/08/11 06:45:34;;;;;;;1.35;0.68;;;20.60;99.90;;;;;;4980663;28;20030;-85
2022/08/11 06:48:01;;;;;;;1.60;0.60;;;20.80;99.90;;;;;;4979527;28;20372;-84
2022/08/11 06:53:17;;;;;;;1.77;0.75;;;21.20;99.90;;;;;;4966344;28;20038;-87
2022/08/11 07:01:32;;;;;;;1.73;0.50;;;21.70;99.90;;;;;;4960105;28;20034;-83
2022/08/11 07:04:08;;;;;;;1.38;0.57;;;21.90;99.90;;;;;;4965738;28;20042;-83
2022/08/11 07:15:40;;;;;;;0.88;0.30;;;22.20;99.90;;;;;;4966050;28;20046;-83
2022/08/11 07:15:42;;;;;;;1.05;0.40;;;22.90;99.90;;;;;;4995864;28;20601;-83
2022/08/11 07:30:29;;;;;;;0.90;0.40;;;24.00;99.90;;;;;;4998358;28;20054;-84
2022/08/11 07:33:04;;;;;;;1.50;0.30;;;24.10;99.90;;;;;;4981200;28;20121;-84
2022/08/11 07:35:35;;;;;;;2.35;0.40;;;24.40;99.90;;;;;;4984839;28;20069;-84
2022/08/11 07:38:11;;;;;;;1.20;0.35;;;24.30;99.90;;;;;;4983052;28;20424;-83
2022/08/11 07:40:38;;;;;;;0.90;0.30;;;24.50;99.90;;;;;;4988234;28;20059;-83
2022/08/11 07:43:05;;;;;;;0.77;0.30;;;24.80;99.90;;;;;;4999443;28;20301;-83
2022/08/11 07:53:52;;;;;;;0.82;0.30;;;25.30;99.90;;;;;;5055175;28;20098;-83
2022/08/11 07:56:19;;;;;;;0.90;0.30;;;25.30;99.90;;;;;;5043562;28;20033;-83
2022/08/11 08:18:07;;;;;;;2.10;0.30;;;26.50;99.90;;;;;;5039983;28;20026;-84
2022/08/11 08:20:45;;;;;;;0.70;0.30;;;26.50;99.90;;;;;;5037410;28;20033;-84
2022/08/11 08:23:11;;;;;;;1.20;0.22;;;26.70;99.90;;;;;;5027853;28;20031;-84
2022/08/11 08:25:41;;;;;;;1.45;0.20;;;26.90;99.90;;;;;;5026039;28;20036;-84
2022/08/11 08:28:12;;;;;;;0.50;0.22;;;26.90;99.90;;;;;;5040449;28;20050;-83
2022/08/11 08:30:48;;;;;;;0.68;0.28;;;27.20;99.90;;;;;;5040004;28;20029;-83
2022/08/11 08:33:28;;;;;;;1.33;0.30;;;27.10;99.90;;;;;;5027612;28;20737;-83
2022/08/11 08:36:10;;;;;;;1.42;0.30;;;27.10;99.90;;;;;;5038662;28;20029;-84
2022/08/11 08:38:40;;;;;;;1.48;0.30;;;27.40;99.90;;;;;;5036288;28;20110;-83
2022/08/11 08:41:08;;;;;;;1.58;0.30;;;27.80;99.90;;;;;;5035588;28;20040;-83
2022/08/11 08:43:36;;;;;;;0.65;0.20;;;27.80;99.90;;;;;;5037226;28;20029;-83
2022/08/11 08:46:07;;;;;;;1.98;0.30;;;27.80;99.90;;;;;;5041641;28;20033;-84
2022/08/11 08:48:34;;;;;;;2.25;0.70;;;27.70;99.90;;;;;;5043055;28;20039;-82
2022/08/11 08:53:52;;;;;;;1.60;0.30;;;27.90;99.90;;;;;;5036786;28;20036;-84
2022/08/11 08:56:24;;;;;;;0.70;0.30;;;28.00;99.90;;;;;;5052302;28;20516;-83
2022/08/11 08:58:51;;;;;;;0.90;0.30;;;28.30;99.90;;;;;;5038990;28;20091;-83
2022/08/11 09:01:21;;;;;;;1.92;0.30;;;28.60;99.90;;;;;;5024918;28;20051;-83
2022/08/11 09:03:48;;;;;;;1.15;0.32;;;28.60;99.90;;;;;;5022621;28;20029;-83
2022/08/11 09:06:16;;;;;;;1.02;0.30;;;28.60;99.90;;;;;;5023931;28;20030;-84
2022/08/11 09:08:44;;;;;;;1.75;0.30;;;28.50;99.90;;;;;;5036906;28;20032;-83
2022/08/11 09:13:58;;;;;;;0.73;0.30;;;28.90;99.90;;;;;;5036592;28;20095;-84
2022/08/11 09:16:24;;;;;;;2.58;0.40;;;28.70;99.90;;;;;;5018465;28;20393;-84
2022/08/11 09:18:52;;;;;;;1.25;0.40;;;28.40;99.90;;;;;;5009808;28;20029;-83
2022/08/11 09:21:22;;;;;;;0.70;0.30;;;28.40;99.90;;;;;;5021083;28;20461;-83
2022/08/11 09:29:25;;;;;;;;;;;29.60;99.90;;;;;;5019287;28;20048;-83
2022/08/11 09:31:52;;;;;;;2.33;0.25;;;29.30;99.90;;;;;;5018032;28;19915;-84
2022/08/11 09:34:19;;;;;;;1.70;0.20;;;29.80;99.90;;;;;;5002734;28;20440;-83
2022/08/11 09:42:21;;;;;;;1.27;0.30;;;30.50;99.90;;;;;;5056971;28;20505;-84
2022/08/11 09:44:48;;;;;;;1.25;0.20;;;30.30;99.60;;;;;;5072703;28;20471;-83
2022/08/11 09:47:30;;;;;;;1.33;0.20;;;30.30;99.90;;;;;;5045947;28;20033;-83
2022/08/11 09:50:00;;;;;;;1.23;0.30;;;30.10;99.90;;;;;;5041777;28;20037;-83
2022/08/11 09:52:29;;;;;;;1.27;0.20;;;29.90;99.90;;;;;;5057119;28;20024;-84
2022/08/11 09:54:56;;;;;;;0.90;0.20;;;30.50;99.90;;;;;;5040429;28;20037;-84
2022/08/11 10:00:11;;;;;;;0.80;0.35;;;30.60;99.80;;;;;;5060056;28;20113;-84
2022/08/11 10:02:47;;;;;;;3.13;0.40;;;30.50;99.50;;;;;;5045327;28;20078;-84
2022/08/11 10:08:03;;;;;;;1.63;0.30;;;30.50;99.10;;;;;;5056100;28;20051;-83
2022/08/11 10:10:35;;;;;;;0.75;0.20;;;30.70;98.80;;;;;;5046631;28;20035;-84
2022/08/11 10:13:05;;;;;;;1.55;0.30;;;31.00;99.20;;;;;;5035922;28;20129;-84
2022/08/11 10:15:37;;;;;;;0.82;0.30;;;31.10;98.90;;;;;;5056337;28;20550;-84
2022/08/11 10:21:27;;;;;;;1.80;0.30;;;31.40;98.80;;;;;;5057285;28;20048;-84
2022/08/11 10:26:53;;;;;;;0.60;0.30;;;31.30;98.30;;;;;;5057276;28;20024;-84
2022/08/11 10:35:02;;;;;;;1.63;0.30;;;32.00;97.80;;;;;;5056935;28;20024;-84
2022/08/11 10:37:35;;;;;;;1.15;0.30;;;31.60;97.60;;;;;;5054659;28;20086;-86
2022/08/11 10:40:04;;;;;;;0.50;0.30;;;31.60;97.00;;;;;;5052438;28;20404;-81
2022/08/11 10:43:16;;;;;;;1.40;0.30;;;31.50;96.40;;;;;;5048882;28;20180;-85
2022/08/11 10:48:05;;;;;;;2.50;0.30;;;31.50;96.60;;;;;;5061325;28;20039;-83
2022/08/11 10:58:50;;;;;;;2.20;0.20;;;31.80;96.10;;;;;;5055531;28;20025;-85
2022/08/11 11:01:51;;;;;;;1.40;0.30;;;32.00;95.80;;;;;;5058027;28;21916;-84
2022/08/11 11:04:22;;;;;;;1.02;0.20;;;32.10;95.80;;;;;;4987874;28;20030;-85
2022/08/11 11:07:03;;;;;;;1.08;0.20;;;32.30;95.70;;;;;;4993685;28;20145;-84
2022/08/11 11:09:31;;;;;;;1.25;0.20;;;32.10;96.20;;;;;;4989263;28;20036;-84
2022/08/11 11:17:56;;;;;;;0.88;0.20;;;32.10;95.00;;;;;;5003432;28;20036;-85
2022/08/11 11:20:23;;;;;;;0.55;0.22;;;32.20;94.90;;;;;;4988550;28;20061;-85
2022/08/11 11:22:53;;;;;;;0.50;0.20;;;32.20;95.20;;;;;;5019678;28;20021;-85
2022/08/11 11:25:42;;;;;;;0.60;0.20;;;32.30;95.70;;;;;;5002775;28;20075;-84
2022/08/11 11:28:23;;;;;;;0.90;0.20;;;32.40;94.90;;;;;;5003227;28;20481;-86
2022/08/11 11:30:52;;;;;;;1.33;0.20;;;32.40;95.40;;;;;;5004166;28;20034;-85
2022/08/11 11:33:41;;;;;;;0.65;0.20;;;33.00;95.20;;;;;;5004860;28;20505;-84
2022/08/11 11:36:20;;;;;;;0.40;0.20;;;32.70;94.40;;;;;;4995454;28;20123;-83
2022/08/11 11:38:46;;;;;;;0.80;0.20;;;32.50;94.40;;;;;;5026828;28;20601;-84
2022/08/11 11:41:24;;;;;;;0.50;0.20;;;32.50;95.00;;;;;;5074037;28;20020;-84
2022/08/11 11:43:55;;;;;;;0.50;0.20;;;32.80;94.60;;;;;;5072096;28;20119;-83
2022/08/11 11:46:23;;;;;;;0.70;0.20;;;32.60;93.70;;;;;;5038132;28;20126;-84
2022/08/11 11:48:50;;;;;;;0.63;0.20;;;32.70;94.40;;;;;;5047674;28;20035;-84
2022/08/11 11:51:16;;;;;;;0.80;0.20;;;32.70;93.50;;;;;;5056436;28;20137;-85
2022/08/11 11:53:44;;;;;;;1.80;0.25;;;32.40;94.40;;;;;;5041824;28;20107;-84
2022/08/11 11:56:11;;;;;;;1.95;0.20;;;32.50;94.10;;;;;;5054210;28;20028;-85
2022/08/11 12:01:24;;;;;;;0.50;0.20;;;33.00;93.40;;;;;;5058711;28;20078;-84
2022/08/11 12:03:52;;;;;;;0.57;0.20;;;33.10;93.90;;;;;;5057999;28;20032;-85
2022/08/11 12:06:24;;;;;;;0.30;0.10;;;33.10;93.50;;;;;;5041176;28;20029;-83
2022/08/11 12:08:53;;;;;;;1.55;0.17;;;33.30;93.90;;;;;;5047342;28;20123;-85
2022/08/11 12:14:08;;;;;;;0.43;0.20;;;33.40;93.10;;;;;;5074107;28;20034;-85
2022/08/11 12:16:36;;;;;;;0.68;0.20;;;33.90;93.40;;;;;;5077318;28;20025;-85
2022/08/11 12:19:07;;;;;;;0.43;0.20;;;33.50;93.30;;;;;;5066669;28;20487;-85
2022/08/11 12:21:35;;;;;;;0.95;0.20;;;33.30;92.40;;;;;;5062060;28;20107;-85
2022/08/11 12:29:26;;;;;;;1.20;0.20;;;32.80;92.70;;;;;;5067063;28;20503;-85
2022/08/11 12:31:57;;;;;;;0.52;0.20;;;32.80;93.10;;;;;;5064295;28;20024;-84
2022/08/11 12:34:26;;;;;;;0.65;0.30;;;32.80;92.90;;;;;;5070216;28;20115;-85
2022/08/11 12:36:52;;;;;;;;;;;32.60;93.00;;;;;;5069027;28;20379;-84
2022/08/11 12:45:26;;;;;;;0.57;0.20;;;32.70;93.70;;;;;;5062490;28;19920;-86
2022/08/11 12:53:26;;;;;;;1.13;0.20;;;32.70;92.40;;;;;;5080718;28;20477;-84
2022/08/11 12:58:47;;;;;;;0.68;0.30;;;32.90;92.60;;;;;;5057098;28;20551;-85
2022/08/11 13:06:43;;;;;;;0.40;0.20;;;33.10;91.80;;;;;;5060050;28;20034;-84
2022/08/11 13:09:11;;;;;;;1.35;0.20;;;33.00;91.90;;;;;;5060368;28;20036;-84
2022/08/11 13:14:31;;;;;;;0.30;0.10;;;33.00;92.20;;;;;;5078207;28;20032;-84
2022/08/11 13:19:44;;;;;;;1.08;0.30;;;32.60;91.70;;;;;;5076405;28;20396;-85
2022/08/11 13:22:11;;;;;;;0.73;0.20;;;32.70;92.20;;;;;;5058854;28;20498;-85
2022/08/11 13:24:39;;;;;;;0.65;0.20;;;32.80;92.40;;;;;;5066808;28;20063;-84
2022/08/11 13:27:06;;;;;;;1.00;0.20;;;33.10;91.50;;;;;;5052965;28;20079;-84
2022/08/11 13:29:34;;;;;;;1.10;0.20;;;32.60;91.70;;;;;;5031381;28;20037;-83
2022/08/11 13:32:00;;;;;;;0.50;0.20;;;32.40;91.70;;;;;;5060380;28;20341;-84
2022/08/11 13:34:32;;;;;;;0.40;0.20;;;32.70;91.50;;;;;;5041223;28;20037;-84
2022/08/11 13:37:03;;;;;;;0.63;0.10;;;32.90;91.80;;;;;;5060744;28;20490;-85
2022/08/11 13:39:32;;;;;;;1.77;0.20;;;32.90;91.50;;;;;;5062887;28;20045;-85
2022/08/11 13:41:59;;;;;;;0.73;0.20;;;32.80;91.60;;;;;;5048517;28;20024;-86
2022/08/11 13:44:29;;;;;;;0.80;0.22;;;32.80;91.00;;;;;;5061419;28;20031;-85
2022/08/11 13:46:58;;;;;;;0.98;0.20;;;32.60;91.10;;;;;;5061223;28;20096;-84
2022/08/11 13:49:24;;;;;;;0.45;0.30;;;32.80;91.30;;;;;;5047085;28;20037;-86
2022/08/11 13:51:50;;;;;;;0.43;0.20;;;32.60;90.60;;;;;;5048863;28;20028;-86
2022/08/11 13:54:24;;;;;;;1.13;0.22;;;32.60;91.10;;;;;;5050184;28;20056;-85
2022/08/11 13:56:55;;;;;;;0.82;0.20;;;32.50;90.30;;;;;;5041369;28;20115;-85
2022/08/11 13:59:22;;;;;;;2.33;0.30;;;32.60;91.20;;;;;;5041266;28;20558;-84
2022/08/11 14:01:53;;;;;;;0.57;0.20;;;32.40;90.70;;;;;;5063661;28;20021;-86
2022/08/11 14:04:26;;;;;;;0.30;0.20;;;32.70;90.60;;;;;;5060591;28;20056;-86
2022/08/11 14:06:54;;;;;;;1.27;0.20;;;32.60;90.30;;;;;;5065398;28;20032;-85
2022/08/11 14:09:25;;;;;;;0.68;0.28;;;32.60;90.80;;;;;;5076649;28;20507;-86
2022/08/11 14:14:42;;;;;;;2.22;0.30;;;32.60;91.40;;;;;;5064450;28;20495;-86
2022/08/11 14:17:09;;;;;;;1.17;0.30;;;32.30;90.80;;;;;;5058458;28;20545;-85
2022/08/11 14:19:39;;;;;;;1.88;0.30;;;32.60;91.50;;;;;;5047984;28;20495;-86
2022/08/11 14:22:06;;;;;;;2.20;0.30;;;32.20;90.70;;;;;;5079489;28;20067;-86
2022/08/11 14:24:40;;;;;;;0.90;0.30;;;32.10;90.80;;;;;;5065642;28;20031;-86
2022/08/11 14:27:08;;;;;;;2.47;0.30;;;32.20;90.50;;;;;;5047891;28;20483;-87
2022/08/11 14:29:37;;;;;;;3.60;0.30;;;32.00;90.20;;;;;;5060622;28;20039;-85
2022/08/11 14:32:06;;;;;;;0.77;0.20;;;32.20;91.00;;;;;;5047988;28;20441;-83
2022/08/11 14:34:35;;;;;;;0.50;0.20;;;32.20;90.70;;;;;;5075404;28;20027;-84
2022/08/11 14:37:10;;;;;;;0.65;0.20;;;32.20;90.40;;;;;;5040723;28;20039;-85
2022/08/11 14:39:42;;;;;;;1.17;0.20;;;32.10;90.20;;;;;;5058664;28;20095;-86
2022/08/11 14:48:04;;;;;;;2.45;0.30;;;32.00;90.30;;;;;;5056400;28;20039;-85
2022/08/11 14:50:32;;;;;;;0.70;0.20;;;32.10;90.90;;;;;;5042289;28;20039;-84
2022/08/11 14:53:07;;;;;;;0.52;0.20;;;32.30;90.80;;;;;;5075781;28;20031;-84
2022/08/11 14:58:26;;;;;;;1.52;0.30;;;32.10;90.10;;;;;;5076043;28;20155;-84
2022/08/11 15:00:55;;;;;;;0.43;0.20;;;32.20;89.90;;;;;;5041318;28;20021;-85
2022/08/11 15:03:24;;;;;;;1.20;0.28;;;32.30;90.50;;;;;;5075355;28;20028;-86
2022/08/11 15:05:55;;;;;;;0.60;0.20;;;32.10;89.80;;;;;;5062181;28;20119;-84
2022/08/11 15:12:07;;;;;;;1.73;0.20;;;32.10;89.40;;;;;;5075566;28;20485;-84
2022/08/11 15:13:57;;;;;;;0.82;0.20;;;32.00;89.40;;;;;;5058272;28;20477;-85
2022/08/11 15:19:11;;;;;;;1.88;0.20;;;32.00;88.70;;;;;;5059388;28;20068;-84
2022/08/11 15:24:22;;;;;;;0.43;0.20;;;32.20;89.60;;;;;;5076917;28;20028;-84
2022/08/11 15:38:18;;;;;;;0.55;0.20;;;31.80;89.90;;;;;;5020944;28;20060;-84
2022/08/11 15:46:34;;;;;;;0.45;0.20;;;32.00;89.80;;;;;;5020398;28;20032;-85
2022/08/11 15:49:11;;;;;;;0.95;0.20;;;32.10;90.10;;;;;;5019958;28;20198;-84
2022/08/11 15:51:42;;;;;;;2.15;0.20;;;31.90;88.70;;;;;;5007267;28;20044;-84
2022/08/11 15:54:11;;;;;;;0.60;0.20;;;31.90;88.90;;;;;;5008343;28;20135;-85
2022/08/11 15:56:42;;;;;;;0.40;0.10;;;31.90;88.70;;;;;;5007712;28;20466;-84
2022/08/11 16:04:41;;;;;;;0.85;0.20;;;31.90;89.00;;;;;;5062133;28;20105;-84
2022/08/11 16:07:18;;;;;;;0.93;0.20;;;31.80;88.80;;;;;;5062803;28;20047;-85
2022/08/11 16:10:13;;;;;;;0.65;0.20;;;31.80;88.90;;;;;;5067593;28;20036;-84
2022/08/11 16:16:13;;;;;;;0.68;0.20;;;31.70;89.40;;;;;;5066742;28;20044;-85
2022/08/11 16:18:21;;;;;;;0.70;0.30;;;31.50;89.40;;;;;;5061084;28;20388;-84
2022/08/11 16:20:50;;;;;;;0.60;0.20;;;31.70;90.10;;;;;;5042934;28;20028;-84
2022/08/11 16:23:18;;;;;;;0.60;0.20;;;31.80;89.60;;;;;;5078004;28;20093;-84
2022/08/11 16:25:45;;;;;;;1.00;0.20;;;31.70;88.90;;;;;;5066681;28;20028;-85
2022/08/11 16:28:12;;;;;;;0.60;0.20;;;31.60;88.90;;;;;;5067176;28;20032;-84
2022/08/11 16:30:42;;;;;;;2.00;0.20;;;31.60;89.20;;;;;;5067466;28;20028;-85
2022/08/11 16:33:10;;;;;;;0.60;0.20;;;31.40;88.70;;;;;;5078159;28;20028;-85
2022/08/11 16:38:34;;;;;;;0.60;0.22;;;31.40;89.90;;;;;;5079149;28;20052;-85
2022/08/11 16:46:58;;;;;;;0.50;0.20;;;31.40;90.00;;;;;;5060812;28;20032;-84
2022/08/11 16:46:59;;;;;;;0.38;0.20;;;31.30;89.50;;;;;;5075789;28;20032;-88
2022/08/11 16:49:30;;;;;;;1.20;0.20;;;31.30;89.80;;;;;;5080358;28;20047;-85
2022/08/11 16:51:56;;;;;;;0.50;0.20;;;31.40;90.20;;;;;;5060765;28;20032;-83
2022/08/11 16:54:23;;;;;;;0.60;0.20;;;31.40;89.90;;;;;;5059210;28;20032;-85
2022/08/11 16:56:52;;;;;;;1.67;0.20;;;31.40;90.10;;;;;;5059450;28;20036;-84
2022/08/11 16:59:32;;;;;;;1.30;0.20;;;31.30;90.10;;;;;;5042580;28;20050;-84
2022/08/11 17:02:06;;;;;;;1.70;0.20;;;31.30;89.80;;;;;;5060288;28;20036;-85
2022/08/11 17:13:19;;;;;;;0.55;0.20;;;31.30;90.20;;;;;;5079176;28;20040;-86
2022/08/11 17:18:52;;;;;;;0.30;0.15;;;31.20;90.30;;;;;;5067068;28;20059;-84
2022/08/11 17:23:45;;;;;;;0.45;0.15;;;31.20;90.30;;;;;;5077656;28;20020;-83
2022/08/11 17:24:26;;;;;;;0.65;0.20;;;31.20;90.30;;;;;;5061023;28;20036;-84
2022/08/11 17:26:56;;;;;;;0.82;0.20;;;31.20;90.10;;;;;;5060256;28;20024;-85
2022/08/11 17:29:34;;;;;;;1.30;0.20;;;31.20;90.20;;;;;;5060452;28;20040;-84
2022/08/11 17:37:35;;;;;;;0.73;0.20;;;31.20;90.40;;;;;;5058916;28;20464;-83
2022/08/11 17:40:05;;;;;;;3.10;0.20;;;31.20;89.70;;;;;;5046857;28;20484;-85
2022/08/11 17:51:11;;;;;;;1.92;0.20;;;31.20;90.00;;;;;;5063641;28;20531;-83
2022/08/11 18:03:27;;;;;;;1.27;0.15;;;30.90;90.00;;;;;;5050957;28;20035;-83
2022/08/11 18:04:50;;;;;;;0.50;0.10;;;30.80;90.00;;;;;;5061323;28;20020;-84
